Northwest Arkansas Regional Airport Fayetteville,Springdale, US
ICAO: KXNA
IATA: XNA
Category: Medium
Scheduled Services: No

Elevation: 1287 ft
TransAlt. 18000 ft.

Airport Communications:
RAZORBACK APP/DEP:121
ASOS:119.425
CTAF:127.1
GND:121.9
JONESBORO RDO:122.55
TWR:127.1
UNICOM:122.95

KXNA Zoom In..

Runways:

(A) RW 16 length 8800 ft width 150 ft
ILS 110.55 / hdg 156

(B) RW 17 length 8800 ft width 150 ft
ILS 111.75 / hdg 156

(C) RW 34 length 8800 ft width 150 ft
ILS 110.55 / hdg 336

(D) RW 35 length 8800 ft width 150 ft
ILS 111.75 / hdg 336

Location; KXNA
Day. 16 / Time. 18.24 Zulu
* Altimeter: 30.04
* Temperature: 31° c. 87.8°f.
* Wind from: 010° Speed 11 kn with Gusts up to 18 kn.
Dewpoint: 21° c.
Visibility: 10 Statute Miles.
Clouds: Scattered 4900 ft.
Clouds: Broken 6500 ft.
Clouds: Broken 9500 ft.
Conditions: Thunderstorm.

KXNA 161824Z 01011G18KT 10SM TS SCT049 BKN065 BKN095 31/21 A3004 RMK AO2 TSB18 T03110206


Wind From 010°
Speed 11 kn.

 
 
jpsmedia.com for Web Design worldairports.se 2018   terms of use